createdAt,value
2024-02-07T00:00:37.895Z,0.60
2024-02-07T00:03:05.131Z,0.80
2024-02-07T00:05:32.123Z,0.80
2024-02-07T00:07:59.209Z,0.43
2024-02-07T00:12:52.957Z,0.22
2024-02-07T00:15:20.629Z,0.45
2024-02-07T00:17:48.513Z,0.17
2024-02-07T00:20:15.901Z,0.40
2024-02-07T00:22:43.020Z,0.40
2024-02-07T00:25:09.958Z,0.40
2024-02-07T00:30:04.504Z,0.38
2024-02-07T00:32:31.922Z,0.17
2024-02-07T00:34:58.879Z,0.30
2024-02-07T00:37:25.956Z,0.63
2024-02-07T00:42:20.156Z,0.47
2024-02-07T00:47:14.243Z,0.70
2024-02-07T00:49:41.317Z,0.68
2024-02-07T00:52:08.534Z,0.47
2024-02-07T00:54:35.574Z,0.73
2024-02-07T00:57:02.639Z,0.63
2024-02-07T01:01:56.330Z,0.38
2024-02-07T01:04:23.436Z,0.28
2024-02-07T01:09:17.567Z,0.52
2024-02-07T01:11:44.585Z,0.60
2024-02-07T01:14:11.469Z,0.70
2024-02-07T01:16:38.352Z,0.50
2024-02-07T01:19:05.369Z,0.60
2024-02-07T01:21:32.300Z,0.60
2024-02-07T01:23:59.203Z,0.88
2024-02-07T01:26:26.004Z,0.88
2024-02-07T01:28:53.012Z,0.88
2024-02-07T01:31:22.775Z,0.85
2024-02-07T01:33:50.856Z,0.47
2024-02-07T01:36:18.570Z,0.50
2024-02-07T01:38:45.425Z,0.43
2024-02-07T01:41:12.453Z,0.60
2024-02-07T01:43:39.402Z,0.30
2024-02-07T01:46:06.426Z,0.47
2024-02-07T01:51:02.974Z,0.55
2024-02-07T01:53:31.342Z,0.88
2024-02-07T01:56:00.606Z,0.65
2024-02-07T01:58:31.425Z,1.02
2024-02-07T02:01:00.185Z,0.73
2024-02-07T02:03:27.282Z,0.70
2024-02-07T02:08:21.326Z,0.93
2024-02-07T02:10:52.668Z,0.68
2024-02-07T02:13:19.787Z,1.02
2024-02-07T02:15:47.548Z,0.98
2024-02-07T02:18:14.449Z,0.50
2024-02-07T02:20:43.571Z,0.70
2024-02-07T02:23:16.476Z,0.60
2024-02-07T02:26:01.344Z,0.82
2024-02-07T02:28:37.942Z,1.55
2024-02-07T02:31:08.905Z,0.55
2024-02-07T02:33:38.788Z,0.70
2024-02-07T02:36:06.978Z,0.65
2024-02-07T02:38:37.138Z,0.68
2024-02-07T02:41:10.324Z,1.00
2024-02-07T02:43:38.686Z,1.13
2024-02-07T02:46:05.944Z,0.82
2024-02-07T02:48:33.096Z,0.50
2024-02-07T02:51:02.021Z,0.40
2024-02-07T02:53:33.240Z,1.13
2024-02-07T02:56:06.802Z,0.70
2024-02-07T02:58:42.564Z,0.85
2024-02-07T03:01:11.970Z,1.17
2024-02-07T03:03:39.739Z,0.90
2024-02-07T03:06:19.988Z,1.30
2024-02-07T03:08:55.860Z,0.93
2024-02-07T03:11:23.268Z,1.15
2024-02-07T03:13:50.162Z,1.05
2024-02-07T03:16:17.096Z,1.20
2024-02-07T03:18:43.984Z,1.08
2024-02-07T03:21:11.821Z,1.30
2024-02-07T03:23:39.496Z,2.63
2024-02-07T03:26:06.580Z,1.33
2024-02-07T03:31:00.646Z,1.83
2024-02-07T03:33:28.211Z,0.93
2024-02-07T03:35:55.488Z,1.17
2024-02-07T03:38:22.710Z,0.63
2024-02-07T03:43:19.319Z,0.45
2024-02-07T03:45:46.254Z,1.15
2024-02-07T03:48:18.754Z,0.90
2024-02-07T03:50:49.930Z,1.00
2024-02-07T03:53:20.639Z,1.48
2024-02-07T03:55:50.001Z,0.50
2024-02-07T03:58:17.240Z,1.00
2024-02-07T04:00:44.883Z,1.40
2024-02-07T04:03:11.804Z,0.65
2024-02-07T04:05:39.150Z,0.25
2024-02-07T04:08:06.523Z,0.30
2024-02-07T04:10:43.216Z,0.88
2024-02-07T04:13:11.524Z,0.75
2024-02-07T04:15:56.828Z,0.77
2024-02-07T04:18:41.858Z,0.60
2024-02-07T04:21:27.274Z,1.75
2024-02-07T04:24:12.610Z,1.65
2024-02-07T04:29:43.367Z,0.85
2024-02-07T04:32:28.386Z,1.60
2024-02-07T04:35:13.487Z,1.35
2024-02-07T04:37:58.729Z,0.95
2024-02-07T04:40:43.985Z,1.30
2024-02-07T04:43:29.486Z,1.15
2024-02-07T04:46:15.174Z,0.77
2024-02-07T04:49:00.927Z,0.30
2024-02-07T04:51:46.674Z,0.35
2024-02-07T04:54:32.325Z,1.70
2024-02-07T04:57:18.207Z,1.35
2024-02-07T05:00:03.678Z,1.02
2024-02-07T05:05:34.324Z,1.23
2024-02-07T05:08:20.145Z,1.90
2024-02-07T05:11:05.958Z,1.55
2024-02-07T05:13:51.597Z,1.30
2024-02-07T05:16:18.604Z,1.83
2024-02-07T05:21:14.743Z,1.85
2024-02-07T05:23:42.392Z,2.00
2024-02-07T05:26:14.341Z,0.77
2024-02-07T05:28:43.117Z,1.38
2024-02-07T05:31:10.047Z,1.00
2024-02-07T05:33:37.164Z,1.20
2024-02-07T05:36:04.298Z,1.00
2024-02-07T05:38:31.993Z,1.75
2024-02-07T05:41:01.320Z,2.03
2024-02-07T05:43:28.708Z,0.98
2024-02-07T05:45:58.024Z,1.65
2024-02-07T05:48:26.238Z,0.50
2024-02-07T05:50:52.941Z,1.88
2024-02-07T05:53:19.682Z,1.63
2024-02-07T05:55:46.695Z,1.15
2024-02-07T05:58:13.524Z,1.92
2024-02-07T06:00:42.190Z,1.55
2024-02-07T06:03:09.360Z,1.05
2024-02-07T06:05:36.022Z,1.08
2024-02-07T06:08:03.139Z,1.20
2024-02-07T06:10:31.319Z,0.70
2024-02-07T06:12:58.218Z,1.35
2024-02-07T06:15:25.044Z,1.67
2024-02-07T06:17:51.819Z,1.70
2024-02-07T06:20:18.990Z,1.17
2024-02-07T06:22:49.297Z,1.75
2024-02-07T06:25:16.885Z,0.90
2024-02-07T06:27:43.915Z,0.80
2024-02-07T06:30:11.050Z,1.40
2024-02-07T06:35:06.070Z,1.05
2024-02-07T06:37:33.125Z,1.42
2024-02-07T06:39:59.875Z,1.90
2024-02-07T06:42:26.624Z,2.08
2024-02-07T06:44:53.425Z,1.25
2024-02-07T06:47:20.149Z,1.17
2024-02-07T06:49:46.890Z,1.05
2024-02-07T06:52:13.772Z,1.05
2024-02-07T06:54:40.444Z,0.60
2024-02-07T06:57:07.279Z,1.00
2024-02-07T06:59:34.595Z,1.98
2024-02-07T07:02:01.574Z,1.67
2024-02-07T07:04:28.523Z,1.17
2024-02-07T07:06:55.519Z,1.75
2024-02-07T07:09:22.245Z,1.48
2024-02-07T07:11:49.011Z,1.02
2024-02-07T07:14:16.168Z,0.68
2024-02-07T07:16:43.238Z,1.48
2024-02-07T07:19:13.558Z,2.25
2024-02-07T07:21:40.802Z,1.30
2024-02-07T07:24:08.003Z,1.13
2024-02-07T07:26:34.744Z,1.45
2024-02-07T07:29:01.597Z,1.10
2024-02-07T07:31:31.304Z,0.60
2024-02-07T07:34:00.383Z,0.88
2024-02-07T07:36:29.207Z,0.45
2024-02-07T07:38:57.288Z,1.67
2024-02-07T07:41:24.412Z,1.27
2024-02-07T07:43:52.498Z,0.88
2024-02-07T07:46:19.684Z,1.20
2024-02-07T07:48:46.902Z,1.33
2024-02-07T07:51:16.573Z,1.35
2024-02-07T07:53:44.090Z,0.93
2024-02-07T07:56:32.444Z,0.77
2024-02-07T07:58:59.382Z,1.67
2024-02-07T08:01:26.998Z,0.98
2024-02-07T08:03:54.561Z,0.90
2024-02-07T08:06:22.815Z,0.90
2024-02-07T08:08:49.942Z,1.23
2024-02-07T08:13:43.338Z,1.42
2024-02-07T08:16:10.174Z,1.08
2024-02-07T08:18:37.044Z,1.05
2024-02-07T08:21:04.637Z,1.23
2024-02-07T08:23:31.653Z,1.20
2024-02-07T08:25:58.620Z,1.02
2024-02-07T08:30:52.607Z,1.15
2024-02-07T08:33:20.632Z,1.17
2024-02-07T08:35:48.956Z,1.95
2024-02-07T08:38:15.836Z,1.40
2024-02-07T08:40:42.971Z,1.27
2024-02-07T08:43:09.921Z,1.67
2024-02-07T08:45:39.159Z,0.93
2024-02-07T08:48:08.337Z,1.23
2024-02-07T08:50:35.362Z,1.95
2024-02-07T08:53:02.401Z,1.60
2024-02-07T08:55:29.412Z,1.45
2024-02-07T08:57:56.389Z,1.27
2024-02-07T09:00:23.231Z,0.90
2024-02-07T09:02:52.498Z,1.85
2024-02-07T09:05:21.806Z,0.70
2024-02-07T09:07:49.193Z,1.30
2024-02-07T09:10:16.961Z,0.60
2024-02-07T09:12:44.412Z,0.57
2024-02-07T09:15:11.425Z,1.20
2024-02-07T09:20:06.335Z,2.40
2024-02-07T09:22:33.471Z,0.65
2024-02-07T09:27:27.209Z,1.77
2024-02-07T09:30:03.716Z,0.98
2024-02-07T09:32:40.070Z,0.80
2024-02-07T09:35:09.441Z,0.85
2024-02-07T09:37:38.206Z,1.60
2024-02-07T09:40:05.927Z,1.25
2024-02-07T09:42:35.497Z,1.00
2024-02-07T09:45:04.926Z,1.67
2024-02-07T09:47:39.370Z,1.88
2024-02-07T09:50:11.250Z,1.75
2024-02-07T09:52:40.678Z,0.70
2024-02-07T09:55:09.760Z,1.80
2024-02-07T09:57:38.280Z,1.70
2024-02-07T10:00:05.849Z,1.55
2024-02-07T10:02:37.857Z,2.28
2024-02-07T10:05:07.417Z,1.27
2024-02-07T10:07:36.178Z,0.90
2024-02-07T10:10:03.835Z,1.15
2024-02-07T10:12:31.923Z,1.50
2024-02-07T10:14:59.659Z,1.55
2024-02-07T10:17:26.579Z,1.80
2024-02-07T10:22:22.076Z,1.38
2024-02-07T10:24:49.152Z,1.58
2024-02-07T10:27:23.326Z,0.93
2024-02-07T10:29:50.384Z,1.40
2024-02-07T10:32:22.180Z,1.35
2024-02-07T10:34:57.160Z,0.93
2024-02-07T10:37:25.084Z,1.35
2024-02-07T10:40:03.909Z,1.75
2024-02-07T10:42:31.329Z,1.13
2024-02-07T10:45:05.897Z,1.70
2024-02-07T10:47:34.859Z,1.25
2024-02-07T10:50:06.620Z,1.23
2024-02-07T10:52:36.353Z,1.10
2024-02-07T10:55:07.397Z,1.40
2024-02-07T10:57:42.378Z,1.58
2024-02-07T11:00:10.439Z,1.45
2024-02-07T11:02:37.403Z,1.95
2024-02-07T11:05:06.602Z,1.30
2024-02-07T11:07:33.977Z,1.00
2024-02-07T11:10:02.652Z,2.22
2024-02-07T11:12:30.770Z,1.25
2024-02-07T11:14:59.636Z,1.42
2024-02-07T11:17:26.698Z,0.73
2024-02-07T11:22:42.862Z,1.23
2024-02-07T11:25:15.156Z,1.33
2024-02-07T11:27:42.380Z,1.08
2024-02-07T11:30:11.241Z,0.57
2024-02-07T11:32:42.018Z,0.95
2024-02-07T11:35:11.181Z,1.00
2024-02-07T11:37:40.317Z,0.88
2024-02-07T11:40:10.186Z,0.70
2024-02-07T11:42:39.505Z,1.13
2024-02-07T11:45:07.374Z,0.93
2024-02-07T11:47:35.600Z,1.17
2024-02-07T11:50:07.410Z,0.90
2024-02-07T11:52:36.017Z,1.58
2024-02-07T11:55:04.775Z,1.08
2024-02-07T11:57:33.301Z,1.00
2024-02-07T12:00:02.308Z,1.67
2024-02-07T12:02:29.578Z,1.00
2024-02-07T12:04:57.258Z,0.77
2024-02-07T12:07:24.714Z,1.10
2024-02-07T12:09:52.155Z,1.00
2024-02-07T12:12:19.448Z,1.70
2024-02-07T12:14:49.016Z,1.30
2024-02-07T12:17:16.271Z,0.50
2024-02-07T12:19:45.662Z,0.90
2024-02-07T12:22:19.824Z,0.35
2024-02-07T12:24:47.524Z,1.05
2024-02-07T12:27:17.314Z,0.90
2024-02-07T12:29:55.586Z,0.60
2024-02-07T12:32:23.859Z,1.05
2024-02-07T12:34:51.731Z,0.82
2024-02-07T12:37:20.919Z,1.05
2024-02-07T12:39:49.884Z,0.82
2024-02-07T12:42:27.745Z,1.05
2024-02-07T12:44:55.596Z,0.50
2024-02-07T12:47:23.853Z,1.17
2024-02-07T12:49:52.445Z,1.42
2024-02-07T12:52:21.106Z,0.93
2024-02-07T12:54:48.775Z,0.75
2024-02-07T12:57:26.640Z,0.60
2024-02-07T12:59:54.707Z,0.93
2024-02-07T13:02:21.836Z,0.50
2024-02-07T13:04:49.428Z,0.75
2024-02-07T13:07:17.464Z,1.27
2024-02-07T13:09:46.143Z,0.80
2024-02-07T13:12:23.798Z,0.75
2024-02-07T13:14:57.025Z,0.75
2024-02-07T13:17:23.908Z,0.90
2024-02-07T13:19:50.791Z,0.88
2024-02-07T13:24:44.667Z,1.13
2024-02-07T13:27:12.554Z,0.60
2024-02-07T13:29:42.316Z,1.40
2024-02-07T13:32:14.598Z,0.85
2024-02-07T13:34:46.950Z,1.20
2024-02-07T13:37:14.419Z,0.55
2024-02-07T13:39:41.433Z,0.90
2024-02-07T13:44:35.890Z,1.00
2024-02-07T13:47:03.490Z,0.93
2024-02-07T13:49:30.675Z,0.55
2024-02-07T13:51:58.299Z,1.05
2024-02-07T13:54:25.242Z,0.30
2024-02-07T13:59:18.884Z,0.95
2024-02-07T14:04:12.687Z,0.95
2024-02-07T14:06:39.574Z,0.90
2024-02-07T14:09:06.593Z,0.90
2024-02-07T14:11:33.654Z,0.88
2024-02-07T14:14:00.661Z,0.70
2024-02-07T14:16:27.706Z,0.50
2024-02-07T14:18:54.587Z,0.90
2024-02-07T14:23:48.409Z,0.88
2024-02-07T14:28:41.945Z,0.30
2024-02-07T14:31:08.715Z,0.55
2024-02-07T14:33:35.487Z,0.90
2024-02-07T14:38:29.812Z,0.80
2024-02-07T14:40:58.981Z,0.95
2024-02-07T14:43:26.121Z,0.88
2024-02-07T14:45:52.922Z,0.63
2024-02-07T14:48:20.513Z,0.70
2024-02-07T14:50:47.964Z,0.45
2024-02-07T14:53:14.882Z,0.77
2024-02-07T14:55:43.278Z,0.32
2024-02-07T14:58:10.295Z,0.57
2024-02-07T15:00:38.897Z,0.50
2024-02-07T15:03:12.173Z,0.77
2024-02-07T15:08:06.924Z,0.32
2024-02-07T15:10:33.964Z,0.30
2024-02-07T15:13:01.177Z,0.57
2024-02-07T15:15:28.089Z,0.50
2024-02-07T15:17:55.202Z,0.50
2024-02-07T15:20:22.211Z,0.80
2024-02-07T15:22:49.229Z,0.85
2024-02-07T15:25:16.928Z,0.40
2024-02-07T15:27:44.117Z,0.57
2024-02-07T15:30:14.615Z,0.60
2024-02-07T15:32:41.981Z,0.60
2024-02-07T15:35:10.251Z,0.70
2024-02-07T15:37:37.268Z,0.60
2024-02-07T15:40:04.236Z,0.40
2024-02-07T15:42:31.479Z,0.65
2024-02-07T15:44:58.328Z,0.65
2024-02-07T15:49:52.425Z,0.57
2024-02-07T15:52:19.457Z,0.60
2024-02-07T15:54:46.578Z,0.28
2024-02-07T15:59:40.155Z,0.32
2024-02-07T16:04:34.268Z,0.80
2024-02-07T16:07:02.741Z,0.57
2024-02-07T16:09:29.778Z,0.50
2024-02-07T16:11:56.676Z,0.50
2024-02-07T16:14:23.561Z,0.35
2024-02-07T16:16:50.865Z,0.82
2024-02-07T16:19:18.028Z,0.22
2024-02-07T16:21:45.090Z,0.60
2024-02-07T16:26:38.756Z,0.40
2024-02-07T16:31:32.832Z,0.20
2024-02-07T16:33:59.789Z,0.65
2024-02-07T16:36:26.760Z,1.02
2024-02-07T16:38:53.704Z,0.80
2024-02-07T16:43:49.528Z,0.25
2024-02-07T16:46:17.044Z,0.22
2024-02-07T16:48:44.040Z,0.43
2024-02-07T16:51:11.004Z,0.30
2024-02-07T16:56:06.519Z,0.73
2024-02-07T16:58:33.975Z,0.55
2024-02-07T17:01:01.042Z,0.20
2024-02-07T17:03:28.086Z,0.40
2024-02-07T17:08:21.962Z,0.22
2024-02-07T17:10:49.729Z,0.73
2024-02-07T17:13:21.122Z,0.68
2024-02-07T17:15:49.116Z,0.65
2024-02-07T17:18:18.801Z,0.20
2024-02-07T17:20:51.503Z,0.70
2024-02-07T17:23:19.254Z,0.65
2024-02-07T17:25:46.364Z,0.32
2024-02-07T17:28:15.174Z,0.28
2024-02-07T17:30:43.685Z,0.22
2024-02-07T17:33:10.937Z,0.45
2024-02-07T17:35:37.978Z,0.40
2024-02-07T17:40:32.692Z,0.50
2024-02-07T17:42:59.797Z,0.63
2024-02-07T17:45:27.388Z,0.45
2024-02-07T17:47:54.681Z,0.20
2024-02-07T17:50:26.869Z,0.90
2024-02-07T17:52:54.109Z,0.00
2024-02-07T17:55:21.672Z,0.68
2024-02-07T17:57:48.856Z,0.43
2024-02-07T18:00:17.570Z,0.30
2024-02-07T18:02:46.123Z,0.47
2024-02-07T18:05:13.327Z,1.75
2024-02-07T18:07:40.773Z,0.22
2024-02-07T18:10:11.980Z,0.88
2024-02-07T18:12:39.593Z,0.50
2024-02-07T18:15:06.757Z,0.50
2024-02-07T18:17:33.932Z,1.13
2024-02-07T18:20:01.015Z,0.57
2024-02-07T18:22:27.987Z,0.40
2024-02-07T18:27:21.902Z,0.20
2024-02-07T18:29:48.849Z,0.00
2024-02-07T18:32:16.336Z,0.10
2024-02-07T18:34:43.368Z,0.00
2024-02-07T18:37:10.746Z,0.28
2024-02-07T18:39:37.872Z,0.00
2024-02-07T18:42:05.159Z,0.00
2024-02-07T18:44:32.235Z,0.00
2024-02-07T18:49:27.243Z,0.00
2024-02-07T18:51:54.296Z,0.00
2024-02-07T18:56:48.337Z,0.00
2024-02-07T18:59:15.374Z,0.00
2024-02-07T19:01:42.580Z,0.43
2024-02-07T19:04:12.512Z,0.00
2024-02-07T19:06:39.378Z,0.10
2024-02-07T19:09:06.730Z,0.00
2024-02-07T19:11:33.704Z,0.00
2024-02-07T19:16:30.749Z,0.00
2024-02-07T19:19:00.625Z,0.00
2024-02-07T19:21:28.528Z,0.00
2024-02-07T19:23:55.434Z,0.00
2024-02-07T19:26:22.557Z,0.10
2024-02-07T19:28:49.637Z,0.40
2024-02-07T19:31:16.541Z,0.00
2024-02-07T19:33:43.393Z,0.00
2024-02-07T19:36:12.310Z,0.17
2024-02-07T19:38:39.093Z,1.45
2024-02-07T19:41:06.010Z,0.00
2024-02-07T19:46:00.062Z,0.17
2024-02-07T19:48:26.967Z,0.00
2024-02-07T19:50:53.850Z,0.10
2024-02-07T19:53:20.659Z,0.22
2024-02-07T19:55:47.477Z,0.13
2024-02-07T19:58:16.126Z,0.00
2024-02-07T20:00:43.289Z,0.00
2024-02-07T20:03:10.353Z,0.00
2024-02-07T20:05:37.788Z,0.00
2024-02-07T20:08:05.421Z,0.00
2024-02-07T20:10:32.608Z,0.63
2024-02-07T20:12:59.930Z,0.00
2024-02-07T20:15:26.918Z,0.03
2024-02-07T20:20:20.828Z,0.00
2024-02-07T20:22:47.882Z,0.00
2024-02-07T20:27:42.835Z,0.13
2024-02-07T20:30:09.898Z,0.00
2024-02-07T20:32:36.790Z,0.00
2024-02-07T20:35:04.172Z,0.00
2024-02-07T20:37:31.264Z,0.00
2024-02-07T20:39:58.333Z,0.00
2024-02-07T20:42:28.715Z,0.32
2024-02-07T20:44:57.776Z,0.13
2024-02-07T20:47:24.639Z,0.00
2024-02-07T20:52:18.122Z,0.00
2024-02-07T20:54:46.084Z,0.08
2024-02-07T20:57:15.208Z,0.10
2024-02-07T20:59:42.833Z,0.55
2024-02-07T21:02:09.537Z,0.63
2024-02-07T21:04:36.935Z,0.00
2024-02-07T21:07:04.026Z,1.25
2024-02-07T21:09:30.897Z,0.15
2024-02-07T21:11:57.702Z,0.00
2024-02-07T21:14:24.526Z,0.00
2024-02-07T21:16:51.350Z,0.00
2024-02-07T21:19:18.223Z,0.00
2024-02-07T21:21:45.091Z,0.00
2024-02-07T21:24:11.786Z,0.47
2024-02-07T21:26:38.704Z,0.47
2024-02-07T21:31:32.917Z,1.45
2024-02-07T21:33:59.756Z,0.15
2024-02-07T21:36:26.971Z,0.00
2024-02-07T21:38:53.731Z,0.00
2024-02-07T21:41:20.452Z,0.00
2024-02-07T21:43:47.471Z,0.03
2024-02-07T21:46:15.785Z,0.00
2024-02-07T21:48:42.644Z,0.00
2024-02-07T21:51:09.905Z,0.00
2024-02-07T21:53:36.690Z,0.00
2024-02-07T21:56:03.691Z,0.00
2024-02-07T21:58:30.445Z,0.00
2024-02-07T22:00:57.191Z,0.00
2024-02-07T22:03:23.995Z,0.00
2024-02-07T22:05:51.371Z,0.00
2024-02-07T22:08:18.370Z,0.00
2024-02-07T22:13:12.573Z,0.00
2024-02-07T22:15:39.482Z,0.08
2024-02-07T22:20:33.276Z,0.00
2024-02-07T22:23:00.343Z,0.00
2024-02-07T22:25:27.385Z,0.00
2024-02-07T22:30:20.992Z,0.10
2024-02-07T22:32:52.149Z,0.00
2024-02-07T22:35:19.608Z,0.00
2024-02-07T22:37:47.250Z,0.00
2024-02-07T22:40:16.541Z,0.00
2024-02-07T22:42:43.480Z,0.00
2024-02-07T22:47:37.713Z,0.00
2024-02-07T22:50:05.263Z,0.00
2024-02-07T22:52:32.245Z,0.00
2024-02-07T22:54:59.504Z,0.00
2024-02-07T22:57:26.235Z,0.00
2024-02-07T22:59:52.979Z,0.00
2024-02-07T23:02:22.837Z,0.00
2024-02-07T23:04:51.473Z,0.00
2024-02-07T23:07:19.330Z,0.00
2024-02-07T23:09:46.682Z,0.35
2024-02-07T23:12:13.445Z,0.20
2024-02-07T23:14:40.109Z,0.10
2024-02-07T23:17:07.324Z,0.00
2024-02-07T23:19:34.259Z,0.00
2024-02-07T23:22:04.739Z,0.00
2024-02-07T23:24:31.521Z,0.00
2024-02-07T23:26:58.436Z,0.00
2024-02-07T23:31:52.254Z,0.00
2024-02-07T23:34:19.074Z,0.00
2024-02-07T23:36:46.248Z,0.00
2024-02-07T23:39:13.106Z,0.00
2024-02-07T23:41:40.500Z,0.00
2024-02-07T23:44:07.294Z,0.00
2024-02-07T23:46:35.769Z,0.00
2024-02-07T23:49:03.480Z,0.00
2024-02-07T23:51:30.305Z,0.00
2024-02-07T23:53:57.330Z,0.00
2024-02-07T23:58:51.228Z,0.00
